Vremea acum in Arad - Romania

Vrei sa afli care e starea vremii acum in Arad - Romania? Dorim sa iti furnizam starea vremii pentru Arad - Romania. Starea vremii Arad - Romania pentru astazi.

Vremea acum in Arad

Temperatura: 0 °C

Se simte ca: -5.3 °C
Innorat: 0 %
Precipitatii: 0 %
Presiune atmosferica: 1015 hPa
Umiditate: 93%
Vizibilitate: 10 km
Vantul bate din SSE cu 20.2 km/h

Evolutia vremii in Arad pe ore

Ora: 03:00
Parțial noros
Temperatura: -0.6°C
Sansa de precipitatii: 0%
Ora Descriere Temp Se simte Precipitatii Umiditate Vant
00:00Cer acoperit-0.9°-5.6°0%89%SSE 15.1 KM/H
01:00Parțial noros-0.8°-5.6°0%88%S 16.6 KM/H
02:00Cer acoperit-0.6°-5.6°0%87%S 17.6 KM/H
03:00Parțial noros-0.6°-5.6°0%87%S 17.6 KM/H
04:00Cer acoperit-0.6°-5.6°0%87%S 17.6 KM/H
05:00Parțial noros-0.6°-5.6°0%86%S 17.6 KM/H
06:00Parțial noros-0.5°-5.5°0%85%S 17.6 KM/H
07:00Parțial noros-0.5°-5.5°0%84%S 17.6 KM/H
08:00Parțial noros-0.4°-5.4°0%83%S 17.6 KM/H
09:00Cer acoperit0.4°-4.6°0%83%S 18.7 KM/H
10:00Parțial noros1.1°-3.8°0%83%S 19.8 KM/H
11:00Cer acoperit1.9°-3°0%84%S 20.9 KM/H
12:00Parțial noros2.1°-2.7°0%85%S 20.9 KM/H
13:00Cer acoperit2.4°-2.4°0%86%S 20.9 KM/H
14:00Parțial noros2.6°-2.1°0%88%S 20.9 KM/H
15:00Noros2.4°-2.1°0%87%S 19.1 KM/H
16:00Parțial noros2.1°-2.2°0%86%S 17.6 KM/H
17:00Noros1.9°-2.2°0%85%S 15.8 KM/H
18:00Parțial noros1.6°-2.6°0%84%S 15.8 KM/H
19:00Noros1.2°-3.1°0%83%S 16.2 KM/H
20:00Parțial noros0.9°-3.5°0%82%S 16.2 KM/H
21:00Parțial noros0.7°-3.8°0%82%S 16.6 KM/H
22:00Parțial noros0.6°-4°0%82%S 16.9 KM/H
23:00Parțial noros0.4°-4.3°0%82%S 17.3 KM/H